createdAt,value
2023-07-15T00:00:26.932Z,20.11
2023-07-15T00:00:57.521Z,20.11
2023-07-15T00:01:14.198Z,20.11
2023-07-15T00:01:41.756Z,20.11
2023-07-15T00:02:00.998Z,20.11
2023-07-15T00:02:34.333Z,20.11
2023-07-15T00:03:06.072Z,20.00
2023-07-15T00:03:37.397Z,20.00
2023-07-15T00:04:09.415Z,20.00
2023-07-15T00:04:38.269Z,20.00
2023-07-15T00:04:57.111Z,19.88
2023-07-15T00:05:14.518Z,19.88
2023-07-15T00:05:38.255Z,19.88
2023-07-15T00:06:00.956Z,19.88
2023-07-15T00:06:33.638Z,19.88
2023-07-15T00:07:04.919Z,19.88
2023-07-15T00:07:37.025Z,19.88
2023-07-15T00:08:09.750Z,19.88
2023-07-15T00:08:37.830Z,19.88
2023-07-15T00:08:57.731Z,19.88
2023-07-15T00:09:29.510Z,19.88
2023-07-15T00:10:02.123Z,20.00
2023-07-15T00:10:33.711Z,20.00
2023-07-15T00:11:05.436Z,20.00
2023-07-15T00:11:37.310Z,20.00
2023-07-15T00:11:53.626Z,20.00
2023-07-15T00:12:26.361Z,20.00
2023-07-15T00:12:57.072Z,20.00
2023-07-15T00:13:13.874Z,20.00
2023-07-15T00:13:37.933Z,20.00
2023-07-15T00:14:01.109Z,20.00
2023-07-15T00:14:33.896Z,20.00
2023-07-15T00:15:09.905Z,20.00
2023-07-15T00:15:37.243Z,20.00
2023-07-15T00:15:55.216Z,19.88
2023-07-15T00:16:25.056Z,19.88
2023-07-15T00:16:57.061Z,19.88
2023-07-15T00:17:14.963Z,19.88
2023-07-15T00:17:37.968Z,19.88
2023-07-15T00:18:01.034Z,19.88
2023-07-15T00:18:33.689Z,19.88
2023-07-15T00:19:05.230Z,19.88
2023-07-15T00:19:38.422Z,19.88
2023-07-15T00:20:11.888Z,19.88
2023-07-15T00:20:38.006Z,19.88
2023-07-15T00:20:57.883Z,19.88
2023-07-15T00:21:14.053Z,19.88
2023-07-15T00:21:38.017Z,19.88
2023-07-15T00:22:03.153Z,19.88
2023-07-15T00:22:34.322Z,19.88
2023-07-15T00:23:05.295Z,19.88
2023-07-15T00:23:37.109Z,19.88
2023-07-15T00:23:53.673Z,19.77
2023-07-15T00:24:25.345Z,19.77
2023-07-15T00:24:57.451Z,19.77
2023-07-15T00:25:29.905Z,19.77
2023-07-15T00:26:01.048Z,19.77
2023-07-15T00:26:33.870Z,19.77
2023-07-15T00:27:05.316Z,19.77
2023-07-15T00:27:37.189Z,19.72
2023-07-15T00:27:53.601Z,19.72
2023-07-15T00:28:25.964Z,19.72
2023-07-15T00:28:57.039Z,19.72
2023-07-15T00:29:14.557Z,19.72
2023-07-15T00:29:40.286Z,19.72
2023-07-15T00:30:03.286Z,19.72
2023-07-15T00:30:35.282Z,19.72
2023-07-15T00:31:05.457Z,19.72
2023-07-15T00:31:37.390Z,19.72
2023-07-15T00:31:54.161Z,19.61
2023-07-15T00:32:25.423Z,19.61
2023-07-15T00:32:57.138Z,19.61
2023-07-15T00:33:14.191Z,19.61
2023-07-15T00:33:38.073Z,19.61
2023-07-15T00:34:01.079Z,19.61
2023-07-15T00:34:33.824Z,19.50
2023-07-15T00:35:09.009Z,19.50
2023-07-15T00:35:38.112Z,19.50
2023-07-15T00:35:55.398Z,19.50
2023-07-15T00:36:25.962Z,19.38
2023-07-15T00:36:57.783Z,19.38
2023-07-15T00:37:29.301Z,19.38
2023-07-15T00:38:01.261Z,19.38
2023-07-15T00:38:34.047Z,19.38
2023-07-15T00:39:05.141Z,19.38
2023-07-15T00:39:37.125Z,19.38
2023-07-15T00:39:53.961Z,19.38
2023-07-15T00:40:31.705Z,19.38
2023-07-15T00:40:57.387Z,19.38
2023-07-15T00:41:29.141Z,19.38
2023-07-15T00:42:01.006Z,19.38
2023-07-15T00:42:33.920Z,19.38
2023-07-15T00:43:05.133Z,19.38
2023-07-15T00:43:37.085Z,19.38
2023-07-15T00:43:53.594Z,19.38
2023-07-15T00:44:25.142Z,19.38
2023-07-15T00:44:57.672Z,19.38
2023-07-15T00:45:16.596Z,19.38
2023-07-15T00:45:38.290Z,19.38
2023-07-15T00:46:01.099Z,19.38
2023-07-15T00:46:34.024Z,19.38
2023-07-15T00:47:05.285Z,19.50
2023-07-15T00:47:37.144Z,19.50
2023-07-15T00:47:53.611Z,19.50
2023-07-15T00:48:25.141Z,19.50
2023-07-15T00:48:57.019Z,19.50
2023-07-15T00:49:14.018Z,19.50
2023-07-15T00:49:38.087Z,19.50
2023-07-15T00:50:02.231Z,19.50
2023-07-15T00:50:34.143Z,19.50
2023-07-15T00:51:05.147Z,19.50
2023-07-15T00:51:37.403Z,19.61
2023-07-15T00:51:53.595Z,19.61
2023-07-15T00:52:25.571Z,19.61
2023-07-15T00:52:57.230Z,19.61
2023-07-15T00:53:14.322Z,19.61
2023-07-15T00:53:39.131Z,19.50
2023-07-15T00:54:01.393Z,19.50
2023-07-15T00:54:33.956Z,19.61
2023-07-15T00:55:07.198Z,19.61
2023-07-15T00:55:37.624Z,19.61
2023-07-15T00:56:09.334Z,19.61
2023-07-15T00:56:38.036Z,19.61
2023-07-15T00:56:57.203Z,19.61
2023-07-15T00:57:14.485Z,19.61
2023-07-15T00:57:38.074Z,19.61
2023-07-15T00:58:01.045Z,19.61
2023-07-15T00:58:33.826Z,19.61
2023-07-15T00:59:05.312Z,19.61
2023-07-15T00:59:37.096Z,19.61
2023-07-15T00:59:53.674Z,19.61
2023-07-15T01:00:27.169Z,19.72
2023-07-15T01:00:57.136Z,19.72
2023-07-15T01:01:14.451Z,19.72
2023-07-15T01:01:38.242Z,19.72
2023-07-15T01:02:01.207Z,19.72
2023-07-15T01:02:34.015Z,19.72
2023-07-15T01:03:06.053Z,19.72
2023-07-15T01:03:38.106Z,19.72
2023-07-15T01:04:09.589Z,19.77
2023-07-15T01:04:37.958Z,19.77
2023-07-15T01:04:57.830Z,19.77
2023-07-15T01:05:29.858Z,19.72
2023-07-15T01:06:01.133Z,19.72
2023-07-15T01:06:34.044Z,19.72
2023-07-15T01:07:05.356Z,19.72
2023-07-15T01:07:37.331Z,19.72
2023-07-15T01:07:53.834Z,19.72
2023-07-15T01:08:26.437Z,19.72
2023-07-15T01:08:57.246Z,19.72
2023-07-15T01:09:15.363Z,19.72
2023-07-15T01:09:37.944Z,19.72
2023-07-15T01:10:02.863Z,19.72
2023-07-15T01:10:33.958Z,19.61
2023-07-15T01:11:05.185Z,19.61
2023-07-15T01:11:37.443Z,19.72
2023-07-15T01:11:54.114Z,19.72
2023-07-15T01:12:25.619Z,19.72
2023-07-15T01:12:57.049Z,19.72
2023-07-15T01:13:14.063Z,19.72
2023-07-15T01:13:38.282Z,19.72
2023-07-15T01:14:02.068Z,19.72
2023-07-15T01:14:34.433Z,19.72
2023-07-15T01:15:07.262Z,19.72
2023-07-15T01:15:37.779Z,19.72
2023-07-15T01:15:54.911Z,19.72
2023-07-15T01:16:25.727Z,19.72
2023-07-15T01:16:57.646Z,19.72
2023-07-15T01:17:14.579Z,19.72
2023-07-15T01:17:38.130Z,19.72
2023-07-15T01:18:01.086Z,19.77
2023-07-15T01:18:33.813Z,19.77
2023-07-15T01:19:05.813Z,19.77
2023-07-15T01:19:37.309Z,19.77
2023-07-15T01:19:54.277Z,19.77
2023-07-15T01:20:26.294Z,19.77
2023-07-15T01:20:58.246Z,19.77
2023-07-15T01:21:14.596Z,19.77
2023-07-15T01:21:38.362Z,19.77
2023-07-15T01:22:01.250Z,19.77
2023-07-15T01:22:33.987Z,19.77
2023-07-15T01:23:05.991Z,19.77
2023-07-15T01:23:36.989Z,19.77
2023-07-15T01:23:55.115Z,19.77
2023-07-15T01:24:25.637Z,19.77
2023-07-15T01:24:57.563Z,19.77
2023-07-15T01:25:15.316Z,19.77
2023-07-15T01:25:38.373Z,19.77
2023-07-15T01:26:01.018Z,19.77
2023-07-15T01:26:33.940Z,19.77
2023-07-15T01:27:06.722Z,19.77
2023-07-15T01:27:37.051Z,19.77
2023-07-15T01:28:09.997Z,19.77
2023-07-15T01:28:38.253Z,19.77
2023-07-15T01:28:57.306Z,19.77
2023-07-15T01:29:14.631Z,19.77
2023-07-15T01:29:38.161Z,19.77
2023-07-15T01:30:03.200Z,19.88
2023-07-15T01:30:34.057Z,19.88
2023-07-15T01:31:05.357Z,19.88
2023-07-15T01:31:38.792Z,19.88
2023-07-15T01:31:54.207Z,19.88
2023-07-15T01:32:26.460Z,19.88
2023-07-15T01:32:57.401Z,19.88
2023-07-15T01:33:29.608Z,19.88
2023-07-15T01:34:00.937Z,19.88
2023-07-15T01:34:34.328Z,19.88
2023-07-15T01:35:06.878Z,19.88
2023-07-15T01:35:37.644Z,19.88
2023-07-15T01:35:54.457Z,19.88
2023-07-15T01:36:26.067Z,19.88
2023-07-15T01:36:57.039Z,19.88
2023-07-15T01:37:14.124Z,19.88
2023-07-15T01:37:38.062Z,19.88
2023-07-15T01:38:01.395Z,19.88
2023-07-15T01:38:34.025Z,19.88
2023-07-15T01:39:05.235Z,19.88
2023-07-15T01:39:37.070Z,19.88
2023-07-15T01:40:10.161Z,19.88
2023-07-15T01:40:38.136Z,19.88
2023-07-15T01:40:58.189Z,19.88
2023-07-15T01:41:14.021Z,19.88
2023-07-15T01:41:38.011Z,19.88
2023-07-15T01:42:01.257Z,19.88
2023-07-15T01:42:34.927Z,19.88
2023-07-15T01:43:05.219Z,19.88
2023-07-15T01:43:37.476Z,19.88
2023-07-15T01:43:53.986Z,19.88
2023-07-15T01:44:25.993Z,19.88
2023-07-15T01:44:57.046Z,20.00
2023-07-15T01:45:15.562Z,20.00
2023-07-15T01:45:38.036Z,20.00
2023-07-15T01:46:01.230Z,20.00
2023-07-15T01:46:34.072Z,20.00
2023-07-15T01:47:05.705Z,20.00
2023-07-15T01:47:37.062Z,20.00
2023-07-15T01:48:10.035Z,20.00
2023-07-15T01:48:37.957Z,20.00
2023-07-15T01:48:57.007Z,20.00
2023-07-15T01:49:14.247Z,20.00
2023-07-15T01:49:38.108Z,20.00
2023-07-15T01:50:02.150Z,20.00
2023-07-15T01:50:33.990Z,20.00
2023-07-15T01:51:05.795Z,19.88
2023-07-15T01:51:38.156Z,19.88
2023-07-15T01:52:09.166Z,19.88
2023-07-15T01:52:38.027Z,19.88
2023-07-15T01:52:57.661Z,19.77
2023-07-15T01:53:29.457Z,19.77
2023-07-15T01:54:01.292Z,19.77
2023-07-15T01:54:33.983Z,19.77
2023-07-15T01:55:06.990Z,19.72
2023-07-15T01:55:37.081Z,19.72
2023-07-15T01:55:55.213Z,19.72
2023-07-15T01:56:25.585Z,19.72
2023-07-15T01:56:57.280Z,19.72
2023-07-15T01:57:14.057Z,19.72
2023-07-15T01:57:38.029Z,19.72
2023-07-15T01:58:01.100Z,19.72
2023-07-15T01:58:34.527Z,19.72
2023-07-15T01:59:05.084Z,19.72
2023-07-15T01:59:37.232Z,19.72
2023-07-15T02:00:10.546Z,19.72
2023-07-15T02:00:38.067Z,19.72
2023-07-15T02:00:58.142Z,19.72
2023-07-15T02:01:14.150Z,19.72
2023-07-15T02:01:38.059Z,19.72
2023-07-15T02:02:01.217Z,19.72
2023-07-15T02:02:34.194Z,19.72
2023-07-15T02:03:05.316Z,19.72
2023-07-15T02:03:37.595Z,19.72
2023-07-15T02:03:55.185Z,19.72
2023-07-15T02:04:25.537Z,19.72
2023-07-15T02:04:57.513Z,19.72
2023-07-15T02:05:14.601Z,19.72
2023-07-15T02:05:38.254Z,19.72
2023-07-15T02:06:01.330Z,19.61
2023-07-15T02:06:34.046Z,19.61
2023-07-15T02:07:05.129Z,19.61
2023-07-15T02:07:37.553Z,19.61
2023-07-15T02:07:54.448Z,19.61
2023-07-15T02:08:25.464Z,19.61
2023-07-15T02:08:59.415Z,19.61
2023-07-15T02:09:15.078Z,19.50
2023-07-15T02:09:38.217Z,19.50
2023-07-15T02:10:02.205Z,19.50
2023-07-15T02:10:34.009Z,19.50
2023-07-15T02:11:06.522Z,19.38
2023-07-15T02:11:38.608Z,19.38
2023-07-15T02:12:09.332Z,19.38
2023-07-15T02:12:39.139Z,19.38
2023-07-15T02:12:57.031Z,19.38
2023-07-15T02:13:14.655Z,19.38
2023-07-15T02:13:38.127Z,19.38
2023-07-15T02:14:01.709Z,19.38
2023-07-15T02:14:34.349Z,19.38
2023-07-15T02:15:07.980Z,19.38
2023-07-15T02:15:37.389Z,19.38
2023-07-15T02:15:54.692Z,19.38
2023-07-15T02:16:25.499Z,19.38
2023-07-15T02:16:57.221Z,19.38
2023-07-15T02:17:14.292Z,19.38
2023-07-15T02:17:39.019Z,19.38
2023-07-15T02:18:01.664Z,19.38
2023-07-15T02:18:34.062Z,19.38
2023-07-15T02:19:05.252Z,19.38
2023-07-15T02:19:37.188Z,19.38
2023-07-15T02:20:10.317Z,19.38
2023-07-15T02:20:38.013Z,19.38
2023-07-15T02:20:57.612Z,19.38
2023-07-15T02:21:14.360Z,19.38
2023-07-15T02:21:39.149Z,19.38
2023-07-15T02:22:01.058Z,19.38
2023-07-15T02:22:35.084Z,19.38
2023-07-15T02:23:05.175Z,19.50
2023-07-15T02:23:37.089Z,19.50
2023-07-15T02:23:54.076Z,19.50
2023-07-15T02:24:26.305Z,19.50
2023-07-15T02:24:57.151Z,19.50
2023-07-15T02:25:29.949Z,19.50
2023-07-15T02:26:00.936Z,19.50
2023-07-15T02:26:33.974Z,19.50
2023-07-15T02:27:05.159Z,19.38
2023-07-15T02:27:37.225Z,19.38
2023-07-15T02:28:09.385Z,19.38
2023-07-15T02:28:37.957Z,19.38
2023-07-15T02:28:57.127Z,19.38
2023-07-15T02:29:14.965Z,19.38
2023-07-15T02:29:38.003Z,19.38
2023-07-15T02:30:03.259Z,19.38
2023-07-15T02:30:35.262Z,19.27
2023-07-15T02:31:05.284Z,19.27
2023-07-15T02:31:37.531Z,19.27
2023-07-15T02:32:09.120Z,19.27
2023-07-15T02:32:39.379Z,19.27
2023-07-15T02:32:57.164Z,19.27
2023-07-15T02:33:14.302Z,19.27
2023-07-15T02:33:38.256Z,19.27
2023-07-15T02:34:01.095Z,19.27
2023-07-15T02:34:34.021Z,19.27
2023-07-15T02:35:06.731Z,19.27
2023-07-15T02:35:36.995Z,19.27
2023-07-15T02:36:09.321Z,19.27
2023-07-15T02:36:38.167Z,19.27
2023-07-15T02:36:56.979Z,19.27
2023-07-15T02:37:14.654Z,19.27
2023-07-15T02:37:38.030Z,19.27
2023-07-15T02:38:01.112Z,19.27
2023-07-15T02:38:32.962Z,19.27
2023-07-15T02:39:04.941Z,19.27
2023-07-15T02:39:37.150Z,19.27
2023-07-15T02:40:09.907Z,19.27
2023-07-15T02:40:39.007Z,19.27
2023-07-15T02:40:57.949Z,19.38
2023-07-15T02:41:29.079Z,19.38
2023-07-15T02:42:01.770Z,19.38
2023-07-15T02:42:32.818Z,19.38
2023-07-15T02:43:05.165Z,19.38
2023-07-15T02:43:37.171Z,19.38
2023-07-15T02:44:09.572Z,19.27
2023-07-15T02:44:37.956Z,19.27
2023-07-15T02:44:57.605Z,19.27
2023-07-15T02:45:30.449Z,19.27
2023-07-15T02:46:01.152Z,19.27
2023-07-15T02:46:34.068Z,19.27
2023-07-15T02:47:05.563Z,19.27
2023-07-15T02:47:37.668Z,19.27
2023-07-15T02:48:09.103Z,19.27
2023-07-15T02:48:38.142Z,19.27
2023-07-15T02:48:57.020Z,19.27
2023-07-15T02:49:29.085Z,19.38
2023-07-15T02:50:02.502Z,19.38
2023-07-15T02:50:33.918Z,19.38
2023-07-15T02:51:04.967Z,19.50
2023-07-15T02:51:38.279Z,19.50
2023-07-15T02:52:09.781Z,19.50
2023-07-15T02:52:37.889Z,19.50
2023-07-15T02:52:56.988Z,19.50
2023-07-15T02:53:29.195Z,19.50
2023-07-15T02:54:01.254Z,19.50
2023-07-15T02:54:33.023Z,19.50
2023-07-15T02:55:06.809Z,19.50
2023-07-15T02:55:38.039Z,19.50
2023-07-15T02:56:09.132Z,19.50
2023-07-15T02:56:37.951Z,19.50
2023-07-15T02:56:57.126Z,19.50
2023-07-15T02:57:29.912Z,19.50
2023-07-15T02:58:01.069Z,19.50
2023-07-15T02:58:33.097Z,19.50
2023-07-15T02:59:05.751Z,19.50
2023-07-15T02:59:37.486Z,19.50
2023-07-15T03:00:10.912Z,19.50
2023-07-15T03:00:39.143Z,19.50
2023-07-15T03:00:57.740Z,19.50
2023-07-15T03:01:29.140Z,19.50
2023-07-15T03:02:01.064Z,19.50
2023-07-15T03:02:32.948Z,19.50
2023-07-15T03:03:04.968Z,19.50
2023-07-15T03:03:37.328Z,19.38
2023-07-15T03:04:09.151Z,19.38
2023-07-15T03:04:38.025Z,19.38
2023-07-15T03:04:57.145Z,19.38
2023-07-15T03:05:30.212Z,19.38
2023-07-15T03:06:02.413Z,19.38
2023-07-15T03:06:33.744Z,19.27
2023-07-15T03:07:05.094Z,19.27
2023-07-15T03:07:38.163Z,19.27
2023-07-15T03:08:09.783Z,19.27
2023-07-15T03:08:37.955Z,19.27
2023-07-15T03:08:56.982Z,19.27
2023-07-15T03:09:29.090Z,19.27
2023-07-15T03:10:02.082Z,19.22
2023-07-15T03:10:32.692Z,19.27
2023-07-15T03:11:05.001Z,19.27
2023-07-15T03:11:37.202Z,19.27
2023-07-15T03:12:08.890Z,19.27
2023-07-15T03:12:38.309Z,19.22
2023-07-15T03:12:57.142Z,19.22
2023-07-15T03:13:29.459Z,19.22
2023-07-15T03:14:01.025Z,19.22
2023-07-15T03:14:32.864Z,19.22
2023-07-15T03:15:07.195Z,19.22
2023-07-15T03:15:38.154Z,19.22
2023-07-15T03:16:09.596Z,19.22
2023-07-15T03:16:38.134Z,19.22
2023-07-15T03:16:57.282Z,19.22
2023-07-15T03:17:29.518Z,19.22
2023-07-15T03:18:01.241Z,19.22
2023-07-15T03:18:32.847Z,19.22
2023-07-15T03:19:05.356Z,19.22
2023-07-15T03:19:37.320Z,19.22
2023-07-15T03:20:09.719Z,19.22
2023-07-15T03:20:38.146Z,19.22
2023-07-15T03:20:57.634Z,19.22
2023-07-15T03:21:29.087Z,19.22
2023-07-15T03:22:01.244Z,19.22
2023-07-15T03:22:32.956Z,19.22
2023-07-15T03:23:05.761Z,19.22
2023-07-15T03:23:37.227Z,19.22
2023-07-15T03:24:09.801Z,19.11
2023-07-15T03:24:38.206Z,19.11
2023-07-15T03:24:57.107Z,19.11
2023-07-15T03:25:29.787Z,19.00
2023-07-15T03:26:01.104Z,19.00
2023-07-15T03:26:32.926Z,18.88
2023-07-15T03:27:05.198Z,18.88
2023-07-15T03:27:37.082Z,18.88
2023-07-15T03:28:09.252Z,18.77
2023-07-15T03:28:38.110Z,18.77
2023-07-15T03:28:57.023Z,18.77
2023-07-15T03:29:29.222Z,18.77
2023-07-15T03:30:02.785Z,18.77
2023-07-15T03:30:32.915Z,18.77
2023-07-15T03:31:05.122Z,18.72
2023-07-15T03:31:37.116Z,18.72
2023-07-15T03:32:09.394Z,18.72
2023-07-15T03:32:38.236Z,18.72
2023-07-15T03:32:57.103Z,18.72
2023-07-15T03:33:30.294Z,18.72
2023-07-15T03:34:01.119Z,18.72
2023-07-15T03:34:32.992Z,18.72
2023-07-15T03:35:06.701Z,18.72
2023-07-15T03:35:37.160Z,18.72
2023-07-15T03:36:09.305Z,18.77
2023-07-15T03:36:38.255Z,18.77
2023-07-15T03:36:57.339Z,18.77
2023-07-15T03:37:29.088Z,18.77
2023-07-15T03:38:01.235Z,18.77
2023-07-15T03:38:32.941Z,18.77
2023-07-15T03:39:05.139Z,18.77
2023-07-15T03:39:37.622Z,18.77
2023-07-15T03:40:10.780Z,18.77
2023-07-15T03:40:38.111Z,18.77
2023-07-15T03:40:57.779Z,18.77
2023-07-15T03:41:29.319Z,18.77
2023-07-15T03:42:01.108Z,18.77
2023-07-15T03:42:32.903Z,18.77
2023-07-15T03:43:05.160Z,18.77
2023-07-15T03:43:37.585Z,18.77
2023-07-15T03:44:10.000Z,18.88
2023-07-15T03:44:38.159Z,18.88
2023-07-15T03:44:57.168Z,18.88
2023-07-15T03:45:30.631Z,18.88
2023-07-15T03:46:01.287Z,18.88
2023-07-15T03:46:33.027Z,19.00
2023-07-15T03:47:05.364Z,19.00
2023-07-15T03:47:37.489Z,19.00
2023-07-15T03:48:09.687Z,19.00
2023-07-15T03:48:38.120Z,19.11
2023-07-15T03:48:57.340Z,19.11
2023-07-15T03:49:29.240Z,19.11
2023-07-15T03:50:02.778Z,19.11
2023-07-15T03:50:33.480Z,19.11
2023-07-15T03:51:05.188Z,19.11
2023-07-15T03:51:37.315Z,19.22
2023-07-15T03:52:09.252Z,19.11
2023-07-15T03:52:38.147Z,19.22
2023-07-15T03:52:57.092Z,19.22
2023-07-15T03:53:29.157Z,19.22
2023-07-15T03:54:01.135Z,19.22
2023-07-15T03:54:33.513Z,19.22
2023-07-15T03:55:06.858Z,19.22
2023-07-15T03:55:37.311Z,19.22
2023-07-15T03:56:09.205Z,19.22
2023-07-15T03:56:38.133Z,19.22
2023-07-15T03:56:57.161Z,19.22
2023-07-15T03:57:29.169Z,19.27
2023-07-15T03:58:01.336Z,19.22
2023-07-15T03:58:33.607Z,19.22
2023-07-15T03:59:05.049Z,19.22
2023-07-15T03:59:38.133Z,19.22
2023-07-15T04:00:10.545Z,19.22
2023-07-15T04:00:39.142Z,19.22
2023-07-15T04:00:57.673Z,19.22
2023-07-15T04:01:29.398Z,19.22
2023-07-15T04:02:01.154Z,19.22
2023-07-15T04:02:32.878Z,19.22
2023-07-15T04:03:05.287Z,19.22
2023-07-15T04:03:37.499Z,19.22
2023-07-15T04:04:09.390Z,19.22
2023-07-15T04:04:38.033Z,19.22
2023-07-15T04:04:57.478Z,19.27
2023-07-15T04:05:29.956Z,19.27
2023-07-15T04:06:01.633Z,19.27
2023-07-15T04:06:32.909Z,19.27
2023-07-15T04:07:05.619Z,19.27
2023-07-15T04:07:37.243Z,19.27
2023-07-15T04:08:09.731Z,19.38
2023-07-15T04:08:38.145Z,19.38
2023-07-15T04:08:56.981Z,19.38
2023-07-15T04:09:29.204Z,19.38
2023-07-15T04:10:02.074Z,19.50
2023-07-15T04:10:32.927Z,19.50
2023-07-15T04:11:05.015Z,19.61
2023-07-15T04:11:37.409Z,19.61
2023-07-15T04:12:09.086Z,19.72
2023-07-15T04:12:38.123Z,19.72
2023-07-15T04:12:56.880Z,19.72
2023-07-15T04:13:29.147Z,19.77
2023-07-15T04:14:01.123Z,19.77
2023-07-15T04:14:33.302Z,19.88
2023-07-15T04:15:07.234Z,19.88
2023-07-15T04:15:37.262Z,19.88
2023-07-15T04:16:09.660Z,20.00
2023-07-15T04:16:38.138Z,20.00
2023-07-15T04:16:57.054Z,20.00
2023-07-15T04:17:29.096Z,20.11
2023-07-15T04:18:01.041Z,20.11
2023-07-15T04:18:32.975Z,20.22
2023-07-15T04:19:05.253Z,20.22
2023-07-15T04:19:37.571Z,20.27
2023-07-15T04:20:10.056Z,20.27
2023-07-15T04:20:38.185Z,20.38
2023-07-15T04:20:57.652Z,20.38
2023-07-15T04:21:29.189Z,20.38
2023-07-15T04:22:01.138Z,20.50
2023-07-15T04:22:33.052Z,20.50
2023-07-15T04:23:21.077Z,20.61
2023-07-15T04:23:42.712Z,20.61
2023-07-15T04:24:09.310Z,20.61
2023-07-15T04:24:38.208Z,20.61
2023-07-15T04:24:57.039Z,20.61
2023-07-15T04:25:29.739Z,20.72
2023-07-15T04:26:01.023Z,20.72
2023-07-15T04:26:32.817Z,20.72
2023-07-15T04:27:05.137Z,20.72
2023-07-15T04:27:37.144Z,20.77
2023-07-15T04:28:09.504Z,20.77
2023-07-15T04:28:38.077Z,20.77
2023-07-15T04:28:57.314Z,20.77
2023-07-15T04:29:29.107Z,20.77
2023-07-15T04:30:02.904Z,20.77
2023-07-15T04:30:32.874Z,20.77
2023-07-15T04:31:05.107Z,20.72
2023-07-15T04:31:37.143Z,20.72
2023-07-15T04:32:09.470Z,20.72
2023-07-15T04:32:38.263Z,20.72
2023-07-15T04:32:57.126Z,20.72
2023-07-15T04:33:29.216Z,20.72
2023-07-15T04:34:02.349Z,20.72
2023-07-15T04:34:33.259Z,20.72
2023-07-15T04:35:06.804Z,20.72
2023-07-15T04:35:37.269Z,20.72
2023-07-15T04:36:09.280Z,20.72
2023-07-15T04:36:38.179Z,20.72
2023-07-15T04:36:57.096Z,20.77
2023-07-15T04:37:29.196Z,20.77
2023-07-15T04:38:01.154Z,20.77
2023-07-15T04:38:32.843Z,20.77
2023-07-15T04:39:05.078Z,20.77
2023-07-15T04:39:37.389Z,20.77
2023-07-15T04:40:09.761Z,20.77
2023-07-15T04:40:38.057Z,20.77
2023-07-15T04:40:57.898Z,20.77
2023-07-15T04:41:29.112Z,20.77
2023-07-15T04:42:00.997Z,20.77
2023-07-15T04:42:32.853Z,20.77
2023-07-15T04:43:05.016Z,20.77
2023-07-15T04:43:37.330Z,20.77
2023-07-15T04:44:09.302Z,20.72
2023-07-15T04:44:38.065Z,20.72
2023-07-15T04:44:56.958Z,20.72
2023-07-15T04:45:30.571Z,20.72
2023-07-15T04:46:01.479Z,20.72
2023-07-15T04:46:33.085Z,20.72
2023-07-15T04:47:05.150Z,20.72
2023-07-15T04:47:37.163Z,20.72
2023-07-15T04:48:09.542Z,20.72
2023-07-15T04:48:38.167Z,20.72
2023-07-15T04:48:57.027Z,20.72
2023-07-15T04:49:29.104Z,20.72
2023-07-15T04:50:02.540Z,20.61
2023-07-15T04:50:32.879Z,20.61
2023-07-15T04:51:05.246Z,20.61
2023-07-15T04:51:37.118Z,20.61
2023-07-15T04:52:09.921Z,20.61
2023-07-15T04:52:38.163Z,20.61
2023-07-15T04:52:57.346Z,20.72
2023-07-15T04:53:29.163Z,20.72
2023-07-15T04:54:01.090Z,20.72
2023-07-15T04:54:33.070Z,20.72
2023-07-15T04:55:07.687Z,20.72
2023-07-15T04:55:38.310Z,20.77
2023-07-15T04:56:09.551Z,20.77
2023-07-15T04:56:38.327Z,20.77
2023-07-15T04:56:57.191Z,20.77
2023-07-15T04:57:29.584Z,20.77
2023-07-15T04:58:01.235Z,20.88
2023-07-15T04:58:33.192Z,20.88
2023-07-15T04:59:05.546Z,20.88
2023-07-15T04:59:37.327Z,20.88
2023-07-15T05:00:10.806Z,21.00
2023-07-15T05:00:38.349Z,21.00
2023-07-15T05:00:58.052Z,21.00
2023-07-15T05:01:29.476Z,21.00
2023-07-15T05:02:01.290Z,21.11
2023-07-15T05:02:33.234Z,21.11
2023-07-15T05:03:05.436Z,21.11
2023-07-15T05:03:37.401Z,21.11
2023-07-15T05:04:09.818Z,21.22
2023-07-15T05:04:38.305Z,21.22
2023-07-15T05:04:57.777Z,21.22
2023-07-15T05:05:30.240Z,21.27
2023-07-15T05:06:01.215Z,21.27
2023-07-15T05:06:33.064Z,21.27
2023-07-15T05:07:05.235Z,21.38
2023-07-15T05:07:51.425Z,21.38
2023-07-15T05:08:09.474Z,21.38
2023-07-15T05:08:38.241Z,21.38
2023-07-15T05:08:57.364Z,21.38
2023-07-15T05:09:29.464Z,21.38
2023-07-15T05:10:02.259Z,21.38
2023-07-15T05:10:33.009Z,21.38
2023-07-15T05:11:05.288Z,21.50
2023-07-15T05:11:37.324Z,21.50
2023-07-15T05:12:09.643Z,21.50
2023-07-15T05:12:38.419Z,21.50
2023-07-15T05:12:57.253Z,21.61
2023-07-15T05:13:29.455Z,21.61
2023-07-15T05:14:01.277Z,21.72
2023-07-15T05:14:33.528Z,21.72
2023-07-15T05:15:07.404Z,21.72
2023-07-15T05:15:37.386Z,21.77
2023-07-15T05:16:09.663Z,21.77
2023-07-15T05:16:38.455Z,21.88
2023-07-15T05:16:57.255Z,21.88
2023-07-15T05:17:29.598Z,21.88
2023-07-15T05:18:01.507Z,22.00
2023-07-15T05:18:33.176Z,22.00
2023-07-15T05:19:05.823Z,22.11
2023-07-15T05:19:37.650Z,22.11
2023-07-15T05:20:11.050Z,22.22
2023-07-15T05:20:38.413Z,22.22
2023-07-15T05:20:58.320Z,22.22
2023-07-15T05:21:29.514Z,22.27
2023-07-15T05:22:01.676Z,22.27
2023-07-15T05:22:33.543Z,22.27
2023-07-15T05:23:05.339Z,22.27
2023-07-15T05:23:37.103Z,22.38
2023-07-15T05:24:09.969Z,22.38
2023-07-15T05:24:38.378Z,22.38
2023-07-15T05:24:57.397Z,22.38
2023-07-15T05:25:30.099Z,22.38
2023-07-15T05:26:01.248Z,22.38
2023-07-15T05:26:33.027Z,22.38
2023-07-15T05:27:05.221Z,22.38
2023-07-15T05:27:37.616Z,22.50
2023-07-15T05:28:09.739Z,22.50
2023-07-15T05:28:38.274Z,22.50
2023-07-15T05:28:57.347Z,22.50
2023-07-15T05:29:29.458Z,22.50
2023-07-15T05:30:02.842Z,22.50
2023-07-15T05:30:33.250Z,22.50
2023-07-15T05:31:05.349Z,22.50
2023-07-15T05:31:37.861Z,22.50
2023-07-15T05:32:09.618Z,22.50
2023-07-15T05:32:38.453Z,22.50
2023-07-15T05:32:57.225Z,22.61
2023-07-15T05:33:29.489Z,22.61
2023-07-15T05:34:01.167Z,22.61
2023-07-15T05:34:33.074Z,22.61
2023-07-15T05:35:07.290Z,22.61
2023-07-15T05:35:37.268Z,22.61
2023-07-15T05:36:09.482Z,22.72
2023-07-15T05:36:38.351Z,22.72
2023-07-15T05:36:57.653Z,22.72
2023-07-15T05:37:29.495Z,22.72
2023-07-15T05:38:01.626Z,22.72
2023-07-15T05:38:33.036Z,22.72
2023-07-15T05:39:05.858Z,22.72
2023-07-15T05:39:37.259Z,22.72
2023-07-15T05:40:10.665Z,22.77
2023-07-15T05:40:38.310Z,22.77
2023-07-15T05:40:57.722Z,22.77
2023-07-15T05:41:29.743Z,22.77
2023-07-15T05:42:01.481Z,22.77
2023-07-15T05:42:33.036Z,22.77
2023-07-15T05:43:05.262Z,22.77
2023-07-15T05:43:37.106Z,22.88
2023-07-15T05:44:09.930Z,22.88
2023-07-15T05:44:38.448Z,22.88
2023-07-15T05:44:57.039Z,22.88
2023-07-15T05:45:30.892Z,23.00
2023-07-15T05:46:01.264Z,23.00
2023-07-15T05:46:33.242Z,23.00
2023-07-15T05:47:05.307Z,23.00
2023-07-15T05:47:37.401Z,23.00
2023-07-15T05:48:09.710Z,23.00
2023-07-15T05:48:38.493Z,23.00
2023-07-15T05:48:57.235Z,23.00
2023-07-15T05:49:29.533Z,23.11
2023-07-15T05:50:02.227Z,23.11
2023-07-15T05:50:33.886Z,23.11
2023-07-15T05:51:05.180Z,23.11
2023-07-15T05:51:37.457Z,23.00
2023-07-15T05:52:09.643Z,23.11
2023-07-15T05:52:38.373Z,23.11
2023-07-15T05:52:57.206Z,23.11
2023-07-15T05:53:29.575Z,23.11
2023-07-15T05:54:01.182Z,23.11
2023-07-15T05:54:33.086Z,23.11
2023-07-15T05:55:06.929Z,23.11
2023-07-15T05:55:37.904Z,23.22
2023-07-15T05:56:10.471Z,23.22
2023-07-15T05:56:38.461Z,23.22
2023-07-15T05:56:57.288Z,23.27
2023-07-15T05:57:29.628Z,23.27
2023-07-15T05:58:01.226Z,23.27
2023-07-15T05:58:33.071Z,23.38
2023-07-15T05:59:05.283Z,23.38
2023-07-15T05:59:37.685Z,23.38
2023-07-15T06:00:10.794Z,23.38
2023-07-15T06:00:38.827Z,23.38
2023-07-15T06:00:58.154Z,23.38
2023-07-15T06:01:29.587Z,23.38
2023-07-15T06:02:01.389Z,23.38
2023-07-15T06:02:33.062Z,23.38
2023-07-15T06:03:05.717Z,23.50
2023-07-15T06:03:37.442Z,23.50
2023-07-15T06:04:10.239Z,23.50
2023-07-15T06:04:38.289Z,23.50
2023-07-15T06:04:57.225Z,23.50
2023-07-15T06:05:30.017Z,23.50
2023-07-15T06:06:01.341Z,23.50
2023-07-15T06:06:33.060Z,23.50
2023-07-15T06:07:05.487Z,23.61
2023-07-15T06:07:37.237Z,23.61
2023-07-15T06:08:09.660Z,23.61
2023-07-15T06:08:38.389Z,23.61
2023-07-15T06:08:57.270Z,23.61
2023-07-15T06:09:29.419Z,23.61
2023-07-15T06:10:02.382Z,23.72
2023-07-15T06:10:33.025Z,23.72